sensor_id;sensor_type;location;lat;lon;timestamp;P1;durP1;ratioP1;P2;durP2;ratioP2
15643;SDS011;7921;43.586;1.408;2023-12-22T00:00:08;11.47;;;3.70;;
15643;SDS011;7921;43.586;1.408;2023-12-22T00:02:34;11.13;;;3.83;;
15643;SDS011;7921;43.586;1.408;2023-12-22T00:04:59;9.77;;;3.30;;
15643;SDS011;7921;43.586;1.408;2023-12-22T00:07:24;10.53;;;3.07;;
15643;SDS011;7921;43.586;1.408;2023-12-22T00:09:50;10.67;;;3.23;;
15643;SDS011;7921;43.586;1.408;2023-12-22T00:12:15;12.70;;;3.77;;
15643;SDS011;7921;43.586;1.408;2023-12-22T00:14:41;7.63;;;3.00;;
15643;SDS011;7921;43.586;1.408;2023-12-22T00:17:06;13.57;;;4.17;;
15643;SDS011;7921;43.586;1.408;2023-12-22T00:19:32;7.13;;;2.73;;
15643;SDS011;7921;43.586;1.408;2023-12-22T00:21:57;14.50;;;4.33;;
15643;SDS011;7921;43.586;1.408;2023-12-22T00:24:23;13.73;;;3.20;;
15643;SDS011;7921;43.586;1.408;2023-12-22T00:26:49;12.00;;;3.77;;
15643;SDS011;7921;43.586;1.408;2023-12-22T00:29:14;8.67;;;3.17;;
15643;SDS011;7921;43.586;1.408;2023-12-22T00:31:39;13.13;;;3.93;;
15643;SDS011;7921;43.586;1.408;2023-12-22T00:34:05;10.70;;;3.40;;
15643;SDS011;7921;43.586;1.408;2023-12-22T00:36:30;11.57;;;4.20;;
15643;SDS011;7921;43.586;1.408;2023-12-22T00:38:55;10.47;;;2.90;;
15643;SDS011;7921;43.586;1.408;2023-12-22T00:41:21;10.63;;;3.20;;
15643;SDS011;7921;43.586;1.408;2023-12-22T00:43:46;9.27;;;3.40;;
15643;SDS011;7921;43.586;1.408;2023-12-22T00:46:12;12.20;;;3.63;;
15643;SDS011;7921;43.586;1.408;2023-12-22T00:48:38;11.77;;;3.73;;
15643;SDS011;7921;43.586;1.408;2023-12-22T00:51:05;12.43;;;4.53;;
15643;SDS011;7921;43.586;1.408;2023-12-22T00:53:31;7.73;;;3.33;;
15643;SDS011;7921;43.586;1.408;2023-12-22T00:55:57;8.53;;;3.27;;
15643;SDS011;7921;43.586;1.408;2023-12-22T00:58:22;13.17;;;3.00;;
15643;SDS011;7921;43.586;1.408;2023-12-22T01:00:47;8.63;;;2.77;;
15643;SDS011;7921;43.586;1.408;2023-12-22T01:03:13;9.73;;;3.00;;
15643;SDS011;7921;43.586;1.408;2023-12-22T01:05:38;8.50;;;2.83;;
15643;SDS011;7921;43.586;1.408;2023-12-22T01:08:04;7.67;;;3.20;;
15643;SDS011;7921;43.586;1.408;2023-12-22T01:10:29;7.93;;;3.00;;
15643;SDS011;7921;43.586;1.408;2023-12-22T01:12:54;8.87;;;2.30;;
15643;SDS011;7921;43.586;1.408;2023-12-22T01:15:20;9.27;;;3.00;;
15643;SDS011;7921;43.586;1.408;2023-12-22T01:17:45;6.87;;;2.20;;
15643;SDS011;7921;43.586;1.408;2023-12-22T01:20:11;9.63;;;3.30;;
15643;SDS011;7921;43.586;1.408;2023-12-22T01:22:36;6.73;;;2.40;;
15643;SDS011;7921;43.586;1.408;2023-12-22T01:25:03;9.73;;;2.73;;
15643;SDS011;7921;43.586;1.408;2023-12-22T01:27:30;7.93;;;2.50;;
15643;SDS011;7921;43.586;1.408;2023-12-22T01:29:55;6.63;;;2.53;;
15643;SDS011;7921;43.586;1.408;2023-12-22T01:32:21;6.87;;;2.67;;
15643;SDS011;7921;43.586;1.408;2023-12-22T01:34:46;3.67;;;1.80;;
15643;SDS011;7921;43.586;1.408;2023-12-22T01:37:12;8.13;;;2.80;;
15643;SDS011;7921;43.586;1.408;2023-12-22T01:39:37;7.47;;;2.00;;
15643;SDS011;7921;43.586;1.408;2023-12-22T01:42:02;7.37;;;2.50;;
15643;SDS011;7921;43.586;1.408;2023-12-22T01:44:28;4.47;;;2.40;;
15643;SDS011;7921;43.586;1.408;2023-12-22T01:46:54;8.87;;;2.27;;
15643;SDS011;7921;43.586;1.408;2023-12-22T01:49:21;4.03;;;1.80;;
15643;SDS011;7921;43.586;1.408;2023-12-22T01:51:46;5.77;;;1.97;;
15643;SDS011;7921;43.586;1.408;2023-12-22T01:54:13;7.53;;;1.67;;
15643;SDS011;7921;43.586;1.408;2023-12-22T01:56:40;5.57;;;1.87;;
15643;SDS011;7921;43.586;1.408;2023-12-22T01:59:06;4.10;;;1.90;;
15643;SDS011;7921;43.586;1.408;2023-12-22T02:01:32;4.67;;;1.90;;
15643;SDS011;7921;43.586;1.408;2023-12-22T02:03:58;5.30;;;1.73;;
15643;SDS011;7921;43.586;1.408;2023-12-22T02:06:24;4.40;;;1.67;;
15643;SDS011;7921;43.586;1.408;2023-12-22T02:08:50;4.73;;;1.80;;
15643;SDS011;7921;43.586;1.408;2023-12-22T02:11:15;5.03;;;1.80;;
15643;SDS011;7921;43.586;1.408;2023-12-22T02:13:42;5.53;;;2.13;;
15643;SDS011;7921;43.586;1.408;2023-12-22T02:16:11;2.60;;;1.33;;
15643;SDS011;7921;43.586;1.408;2023-12-22T02:18:43;2.97;;;1.37;;
15643;SDS011;7921;43.586;1.408;2023-12-22T02:21:12;5.43;;;1.40;;
15643;SDS011;7921;43.586;1.408;2023-12-22T02:23:37;3.70;;;1.83;;
15643;SDS011;7921;43.586;1.408;2023-12-22T02:26:08;4.73;;;1.50;;
15643;SDS011;7921;43.586;1.408;2023-12-22T02:28:37;4.20;;;1.60;;
15643;SDS011;7921;43.586;1.408;2023-12-22T02:33:47;5.73;;;1.40;;
15643;SDS011;7921;43.586;1.408;2023-12-22T02:36:14;5.03;;;1.53;;
15643;SDS011;7921;43.586;1.408;2023-12-22T02:38:40;4.90;;;1.30;;
15643;SDS011;7921;43.586;1.408;2023-12-22T02:41:06;3.93;;;1.43;;
15643;SDS011;7921;43.586;1.408;2023-12-22T02:43:32;4.53;;;1.40;;
15643;SDS011;7921;43.586;1.408;2023-12-22T02:45:57;2.87;;;1.20;;
15643;SDS011;7921;43.586;1.408;2023-12-22T02:48:22;2.30;;;1.10;;
15643;SDS011;7921;43.586;1.408;2023-12-22T02:50:48;3.07;;;1.30;;
15643;SDS011;7921;43.586;1.408;2023-12-22T02:53:13;1.87;;;1.10;;
15643;SDS011;7921;43.586;1.408;2023-12-22T02:55:39;3.43;;;1.27;;
15643;SDS011;7921;43.586;1.408;2023-12-22T02:58:04;1.27;;;0.90;;
15643;SDS011;7921;43.586;1.408;2023-12-22T03:00:29;3.27;;;0.97;;
15643;SDS011;7921;43.586;1.408;2023-12-22T03:02:55;2.07;;;1.03;;
15643;SDS011;7921;43.586;1.408;2023-12-22T03:05:20;1.77;;;1.10;;
15643;SDS011;7921;43.586;1.408;2023-12-22T03:07:45;1.83;;;1.00;;
15643;SDS011;7921;43.586;1.408;2023-12-22T03:10:11;1.80;;;0.90;;
15643;SDS011;7921;43.586;1.408;2023-12-22T03:12:36;1.93;;;0.90;;
15643;SDS011;7921;43.586;1.408;2023-12-22T03:15:01;3.33;;;2.03;;
15643;SDS011;7921;43.586;1.408;2023-12-22T03:17:27;2.10;;;0.97;;
15643;SDS011;7921;43.586;1.408;2023-12-22T03:19:53;2.23;;;1.00;;
15643;SDS011;7921;43.586;1.408;2023-12-22T03:22:18;1.53;;;0.90;;
15643;SDS011;7921;43.586;1.408;2023-12-22T03:24:43;2.33;;;1.00;;
15643;SDS011;7921;43.586;1.408;2023-12-22T03:27:09;1.47;;;0.80;;
15643;SDS011;7921;43.586;1.408;2023-12-22T03:29:35;3.20;;;0.97;;
15643;SDS011;7921;43.586;1.408;2023-12-22T03:32:00;1.70;;;0.80;;
15643;SDS011;7921;43.586;1.408;2023-12-22T03:34:25;1.63;;;0.80;;
15643;SDS011;7921;43.586;1.408;2023-12-22T03:36:51;2.60;;;1.00;;
15643;SDS011;7921;43.586;1.408;2023-12-22T03:39:16;0.67;;;0.53;;
15643;SDS011;7921;43.586;1.408;2023-12-22T03:41:42;1.43;;;0.70;;
15643;SDS011;7921;43.586;1.408;2023-12-22T03:44:07;1.17;;;0.87;;
15643;SDS011;7921;43.586;1.408;2023-12-22T03:46:32;1.27;;;0.70;;
15643;SDS011;7921;43.586;1.408;2023-12-22T03:48:58;2.37;;;0.70;;
15643;SDS011;7921;43.586;1.408;2023-12-22T03:51:23;2.80;;;0.80;;
15643;SDS011;7921;43.586;1.408;2023-12-22T03:53:49;2.50;;;0.80;;
15643;SDS011;7921;43.586;1.408;2023-12-22T03:56:14;0.97;;;0.80;;
15643;SDS011;7921;43.586;1.408;2023-12-22T03:58:39;1.27;;;1.10;;
15643;SDS011;7921;43.586;1.408;2023-12-22T04:01:05;2.07;;;0.77;;
15643;SDS011;7921;43.586;1.408;2023-12-22T04:03:32;2.20;;;1.00;;
15643;SDS011;7921;43.586;1.408;2023-12-22T04:06:01;1.00;;;0.50;;
15643;SDS011;7921;43.586;1.408;2023-12-22T04:08:27;3.20;;;0.83;;
15643;SDS011;7921;43.586;1.408;2023-12-22T04:10:52;1.37;;;0.90;;
15643;SDS011;7921;43.586;1.408;2023-12-22T04:13:18;1.27;;;0.63;;
15643;SDS011;7921;43.586;1.408;2023-12-22T04:15:43;0.90;;;0.60;;
15643;SDS011;7921;43.586;1.408;2023-12-22T04:18:09;1.07;;;0.83;;
15643;SDS011;7921;43.586;1.408;2023-12-22T04:20:34;1.70;;;0.60;;
15643;SDS011;7921;43.586;1.408;2023-12-22T04:23:00;1.47;;;0.70;;
15643;SDS011;7921;43.586;1.408;2023-12-22T04:25:25;2.47;;;0.80;;
15643;SDS011;7921;43.586;1.408;2023-12-22T04:27:51;1.03;;;0.60;;
15643;SDS011;7921;43.586;1.408;2023-12-22T04:30:17;1.00;;;0.57;;
15643;SDS011;7921;43.586;1.408;2023-12-22T04:32:42;1.13;;;0.50;;
15643;SDS011;7921;43.586;1.408;2023-12-22T04:35:07;0.50;;;0.50;;
15643;SDS011;7921;43.586;1.408;2023-12-22T04:37:33;0.90;;;0.50;;
15643;SDS011;7921;43.586;1.408;2023-12-22T04:39:58;1.73;;;0.93;;
15643;SDS011;7921;43.586;1.408;2023-12-22T04:42:24;2.20;;;0.70;;
15643;SDS011;7921;43.586;1.408;2023-12-22T04:44:50;0.50;;;0.50;;
15643;SDS011;7921;43.586;1.408;2023-12-22T04:47:16;0.50;;;0.50;;
15643;SDS011;7921;43.586;1.408;2023-12-22T04:49:41;0.63;;;0.40;;
15643;SDS011;7921;43.586;1.408;2023-12-22T04:52:07;0.63;;;0.63;;
15643;SDS011;7921;43.586;1.408;2023-12-22T04:54:32;1.00;;;0.60;;
15643;SDS011;7921;43.586;1.408;2023-12-22T04:56:57;0.63;;;0.50;;
15643;SDS011;7921;43.586;1.408;2023-12-22T04:59:23;0.50;;;0.50;;
15643;SDS011;7921;43.586;1.408;2023-12-22T05:01:48;0.50;;;0.50;;
15643;SDS011;7921;43.586;1.408;2023-12-22T05:04:14;0.70;;;0.60;;
15643;SDS011;7921;43.586;1.408;2023-12-22T05:06:39;0.53;;;0.40;;
15643;SDS011;7921;43.586;1.408;2023-12-22T05:09:05;0.50;;;0.50;;
15643;SDS011;7921;43.586;1.408;2023-12-22T05:11:30;0.87;;;0.40;;
15643;SDS011;7921;43.586;1.408;2023-12-22T05:13:55;0.83;;;0.50;;
15643;SDS011;7921;43.586;1.408;2023-12-22T05:16:21;0.90;;;0.40;;
15643;SDS011;7921;43.586;1.408;2023-12-22T05:18:46;0.50;;;0.50;;
15643;SDS011;7921;43.586;1.408;2023-12-22T05:21:14;0.63;;;0.50;;
15643;SDS011;7921;43.586;1.408;2023-12-22T05:23:40;0.30;;;0.30;;
15643;SDS011;7921;43.586;1.408;2023-12-22T05:26:05;1.27;;;0.50;;
15643;SDS011;7921;43.586;1.408;2023-12-22T05:28:31;0.40;;;0.40;;
15643;SDS011;7921;43.586;1.408;2023-12-22T05:30:57;1.43;;;0.40;;
15643;SDS011;7921;43.586;1.408;2023-12-22T05:33:22;0.60;;;0.60;;
15643;SDS011;7921;43.586;1.408;2023-12-22T05:35:48;0.40;;;0.40;;
15643;SDS011;7921;43.586;1.408;2023-12-22T05:38:13;0.40;;;0.40;;
15643;SDS011;7921;43.586;1.408;2023-12-22T05:40:38;1.60;;;1.30;;
15643;SDS011;7921;43.586;1.408;2023-12-22T05:43:04;0.57;;;0.50;;
15643;SDS011;7921;43.586;1.408;2023-12-22T05:45:29;0.50;;;0.50;;
15643;SDS011;7921;43.586;1.408;2023-12-22T05:47:55;1.03;;;0.50;;
15643;SDS011;7921;43.586;1.408;2023-12-22T05:50:20;0.50;;;0.50;;
15643;SDS011;7921;43.586;1.408;2023-12-22T05:52:45;1.47;;;0.60;;
15643;SDS011;7921;43.586;1.408;2023-12-22T05:55:11;0.63;;;0.40;;
15643;SDS011;7921;43.586;1.408;2023-12-22T05:57:36;0.50;;;0.50;;
15643;SDS011;7921;43.586;1.408;2023-12-22T06:00:02;1.13;;;0.40;;
15643;SDS011;7921;43.586;1.408;2023-12-22T06:02:32;0.60;;;0.60;;
15643;SDS011;7921;43.586;1.408;2023-12-22T06:04:57;1.10;;;0.50;;
15643;SDS011;7921;43.586;1.408;2023-12-22T06:07:23;0.60;;;0.50;;
15643;SDS011;7921;43.586;1.408;2023-12-22T06:09:49;0.50;;;0.50;;
15643;SDS011;7921;43.586;1.408;2023-12-22T06:12:14;0.93;;;0.63;;
15643;SDS011;7921;43.586;1.408;2023-12-22T06:14:39;0.43;;;0.43;;
15643;SDS011;7921;43.586;1.408;2023-12-22T06:17:05;0.47;;;0.47;;
15643;SDS011;7921;43.586;1.408;2023-12-22T06:19:30;0.40;;;0.40;;
15643;SDS011;7921;43.586;1.408;2023-12-22T06:21:56;0.57;;;0.50;;
15643;SDS011;7921;43.586;1.408;2023-12-22T06:24:22;0.50;;;0.50;;
15643;SDS011;7921;43.586;1.408;2023-12-22T06:26:48;1.10;;;0.70;;
15643;SDS011;7921;43.586;1.408;2023-12-22T06:29:13;0.97;;;0.70;;
15643;SDS011;7921;43.586;1.408;2023-12-22T06:31:39;0.67;;;0.67;;
15643;SDS011;7921;43.586;1.408;2023-12-22T06:34:04;0.50;;;0.50;;
15643;SDS011;7921;43.586;1.408;2023-12-22T06:36:30;1.53;;;0.63;;
15643;SDS011;7921;43.586;1.408;2023-12-22T06:38:55;0.40;;;0.40;;
15643;SDS011;7921;43.586;1.408;2023-12-22T06:41:24;0.73;;;0.40;;
15643;SDS011;7921;43.586;1.408;2023-12-22T06:43:50;0.53;;;0.40;;
15643;SDS011;7921;43.586;1.408;2023-12-22T06:46:16;0.80;;;0.50;;
15643;SDS011;7921;43.586;1.408;2023-12-22T06:48:42;0.50;;;0.40;;
15643;SDS011;7921;43.586;1.408;2023-12-22T06:51:11;1.13;;;1.07;;
15643;SDS011;7921;43.586;1.408;2023-12-22T06:53:46;0.80;;;0.50;;
15643;SDS011;7921;43.586;1.408;2023-12-22T06:56:22;0.50;;;0.50;;
15643;SDS011;7921;43.586;1.408;2023-12-22T06:58:49;0.33;;;0.33;;
15643;SDS011;7921;43.586;1.408;2023-12-22T07:01:22;0.50;;;0.43;;
15643;SDS011;7921;43.586;1.408;2023-12-22T07:03:50;0.53;;;0.40;;
15643;SDS011;7921;43.586;1.408;2023-12-22T07:06:16;0.60;;;0.50;;
15643;SDS011;7921;43.586;1.408;2023-12-22T07:08:43;0.40;;;0.40;;
15643;SDS011;7921;43.586;1.408;2023-12-22T07:11:09;0.40;;;0.40;;
15643;SDS011;7921;43.586;1.408;2023-12-22T07:13:35;0.50;;;0.50;;
15643;SDS011;7921;43.586;1.408;2023-12-22T07:16:01;0.50;;;0.50;;
15643;SDS011;7921;43.586;1.408;2023-12-22T07:18:30;0.40;;;0.40;;
15643;SDS011;7921;43.586;1.408;2023-12-22T07:20:59;0.57;;;0.57;;
15643;SDS011;7921;43.586;1.408;2023-12-22T07:23:24;0.50;;;0.47;;
15643;SDS011;7921;43.586;1.408;2023-12-22T07:25:50;0.50;;;0.50;;
15643;SDS011;7921;43.586;1.408;2023-12-22T07:28:15;0.40;;;0.40;;
15643;SDS011;7921;43.586;1.408;2023-12-22T07:30:41;0.47;;;0.47;;
15643;SDS011;7921;43.586;1.408;2023-12-22T07:33:07;0.43;;;0.43;;
15643;SDS011;7921;43.586;1.408;2023-12-22T07:35:32;0.57;;;0.57;;
15643;SDS011;7921;43.586;1.408;2023-12-22T07:37:58;0.60;;;0.60;;
15643;SDS011;7921;43.586;1.408;2023-12-22T07:40:24;0.50;;;0.50;;
15643;SDS011;7921;43.586;1.408;2023-12-22T07:42:49;0.53;;;0.53;;
15643;SDS011;7921;43.586;1.408;2023-12-22T07:45:15;0.53;;;0.53;;
15643;SDS011;7921;43.586;1.408;2023-12-22T07:47:41;0.50;;;0.50;;
15643;SDS011;7921;43.586;1.408;2023-12-22T07:50:06;0.43;;;0.43;;
15643;SDS011;7921;43.586;1.408;2023-12-22T07:52:33;0.60;;;0.60;;
15643;SDS011;7921;43.586;1.408;2023-12-22T07:55:03;0.70;;;0.60;;
15643;SDS011;7921;43.586;1.408;2023-12-22T07:57:29;1.07;;;0.60;;
15643;SDS011;7921;43.586;1.408;2023-12-22T07:59:55;1.10;;;0.60;;
15643;SDS011;7921;43.586;1.408;2023-12-22T08:02:21;0.60;;;0.50;;
15643;SDS011;7921;43.586;1.408;2023-12-22T08:04:47;0.50;;;0.50;;
15643;SDS011;7921;43.586;1.408;2023-12-22T08:07:14;0.50;;;0.50;;
15643;SDS011;7921;43.586;1.408;2023-12-22T08:09:39;0.50;;;0.50;;
15643;SDS011;7921;43.586;1.408;2023-12-22T08:12:04;0.53;;;0.50;;
15643;SDS011;7921;43.586;1.408;2023-12-22T08:14:30;1.07;;;0.50;;
15643;SDS011;7921;43.586;1.408;2023-12-22T08:16:55;0.50;;;0.50;;
15643;SDS011;7921;43.586;1.408;2023-12-22T08:19:21;0.50;;;0.50;;
15643;SDS011;7921;43.586;1.408;2023-12-22T08:21:46;2.00;;;0.80;;
15643;SDS011;7921;43.586;1.408;2023-12-22T08:24:12;0.53;;;0.53;;
15643;SDS011;7921;43.586;1.408;2023-12-22T08:26:37;0.97;;;0.63;;
15643;SDS011;7921;43.586;1.408;2023-12-22T08:29:02;1.00;;;0.60;;
15643;SDS011;7921;43.586;1.408;2023-12-22T08:31:28;0.47;;;0.47;;
15643;SDS011;7921;43.586;1.408;2023-12-22T08:33:53;0.80;;;0.70;;
15643;SDS011;7921;43.586;1.408;2023-12-22T08:36:18;0.70;;;0.70;;
15643;SDS011;7921;43.586;1.408;2023-12-22T08:38:44;0.60;;;0.60;;
15643;SDS011;7921;43.586;1.408;2023-12-22T08:41:09;1.40;;;0.70;;
15643;SDS011;7921;43.586;1.408;2023-12-22T08:43:36;0.60;;;0.60;;
15643;SDS011;7921;43.586;1.408;2023-12-22T08:46:03;2.07;;;0.70;;
15643;SDS011;7921;43.586;1.408;2023-12-22T08:48:28;0.80;;;0.50;;
15643;SDS011;7921;43.586;1.408;2023-12-22T08:50:54;0.60;;;0.60;;
15643;SDS011;7921;43.586;1.408;2023-12-22T08:53:19;0.80;;;0.60;;
15643;SDS011;7921;43.586;1.408;2023-12-22T08:55:45;0.90;;;0.50;;
15643;SDS011;7921;43.586;1.408;2023-12-22T08:58:10;0.73;;;0.50;;
15643;SDS011;7921;43.586;1.408;2023-12-22T09:00:35;0.63;;;0.47;;
15643;SDS011;7921;43.586;1.408;2023-12-22T09:03:01;1.60;;;1.13;;
15643;SDS011;7921;43.586;1.408;2023-12-22T09:05:27;0.50;;;0.50;;
15643;SDS011;7921;43.586;1.408;2023-12-22T09:07:52;0.67;;;0.67;;
15643;SDS011;7921;43.586;1.408;2023-12-22T09:10:18;0.63;;;0.50;;
15643;SDS011;7921;43.586;1.408;2023-12-22T09:12:44;1.00;;;0.70;;
15643;SDS011;7921;43.586;1.408;2023-12-22T09:15:09;0.60;;;0.60;;
15643;SDS011;7921;43.586;1.408;2023-12-22T09:17:34;0.60;;;0.60;;
15643;SDS011;7921;43.586;1.408;2023-12-22T09:20:00;0.90;;;0.60;;
15643;SDS011;7921;43.586;1.408;2023-12-22T09:22:25;0.97;;;0.53;;
15643;SDS011;7921;43.586;1.408;2023-12-22T09:24:51;0.60;;;0.57;;
15643;SDS011;7921;43.586;1.408;2023-12-22T09:27:16;0.50;;;0.50;;
15643;SDS011;7921;43.586;1.408;2023-12-22T09:29:41;0.50;;;0.50;;
15643;SDS011;7921;43.586;1.408;2023-12-22T09:32:07;0.50;;;0.50;;
15643;SDS011;7921;43.586;1.408;2023-12-22T09:34:33;0.53;;;0.53;;
15643;SDS011;7921;43.586;1.408;2023-12-22T09:36:58;1.43;;;0.60;;
15643;SDS011;7921;43.586;1.408;2023-12-22T09:39:23;1.77;;;0.57;;
15643;SDS011;7921;43.586;1.408;2023-12-22T09:41:49;0.50;;;0.50;;
15643;SDS011;7921;43.586;1.408;2023-12-22T09:44:18;0.70;;;0.70;;
15643;SDS011;7921;43.586;1.408;2023-12-22T09:46:46;1.03;;;0.63;;
15643;SDS011;7921;43.586;1.408;2023-12-22T09:49:12;0.43;;;0.43;;
15643;SDS011;7921;43.586;1.408;2023-12-22T09:51:38;1.00;;;0.60;;
15643;SDS011;7921;43.586;1.408;2023-12-22T09:54:03;0.60;;;0.60;;
15643;SDS011;7921;43.586;1.408;2023-12-22T09:56:30;0.77;;;0.63;;
15643;SDS011;7921;43.586;1.408;2023-12-22T09:58:56;1.10;;;0.77;;
15643;SDS011;7921;43.586;1.408;2023-12-22T10:01:21;0.70;;;0.60;;
15643;SDS011;7921;43.586;1.408;2023-12-22T10:03:48;0.60;;;0.60;;
15643;SDS011;7921;43.586;1.408;2023-12-22T10:06:13;0.87;;;0.70;;
15643;SDS011;7921;43.586;1.408;2023-12-22T10:08:39;0.90;;;0.80;;
15643;SDS011;7921;43.586;1.408;2023-12-22T10:11:04;1.27;;;0.70;;
15643;SDS011;7921;43.586;1.408;2023-12-22T10:13:31;0.67;;;0.60;;
15643;SDS011;7921;43.586;1.408;2023-12-22T10:15:58;0.50;;;0.50;;
15643;SDS011;7921;43.586;1.408;2023-12-22T10:18:24;0.90;;;0.60;;
15643;SDS011;7921;43.586;1.408;2023-12-22T10:20:49;0.50;;;0.50;;
15643;SDS011;7921;43.586;1.408;2023-12-22T10:23:15;2.23;;;0.70;;
15643;SDS011;7921;43.586;1.408;2023-12-22T10:25:40;0.53;;;0.50;;
15643;SDS011;7921;43.586;1.408;2023-12-22T10:28:09;0.50;;;0.50;;
15643;SDS011;7921;43.586;1.408;2023-12-22T10:30:35;1.03;;;0.77;;
15643;SDS011;7921;43.586;1.408;2023-12-22T10:33:03;1.17;;;0.60;;
15643;SDS011;7921;43.586;1.408;2023-12-22T10:35:29;0.60;;;0.60;;
15643;SDS011;7921;43.586;1.408;2023-12-22T10:37:55;0.60;;;0.53;;
15643;SDS011;7921;43.586;1.408;2023-12-22T10:40:21;0.70;;;0.70;;
15643;SDS011;7921;43.586;1.408;2023-12-22T10:42:48;0.70;;;0.70;;
15643;SDS011;7921;43.586;1.408;2023-12-22T10:45:13;0.60;;;0.60;;
15643;SDS011;7921;43.586;1.408;2023-12-22T10:47:40;0.40;;;0.40;;
15643;SDS011;7921;43.586;1.408;2023-12-22T10:50:06;0.63;;;0.50;;
15643;SDS011;7921;43.586;1.408;2023-12-22T10:52:31;0.60;;;0.60;;
15643;SDS011;7921;43.586;1.408;2023-12-22T10:54:57;0.50;;;0.50;;
15643;SDS011;7921;43.586;1.408;2023-12-22T10:57:23;1.30;;;0.70;;
15643;SDS011;7921;43.586;1.408;2023-12-22T10:59:48;0.60;;;0.60;;
15643;SDS011;7921;43.586;1.408;2023-12-22T11:02:17;1.40;;;0.80;;
15643;SDS011;7921;43.586;1.408;2023-12-22T11:05:03;1.00;;;0.97;;
15643;SDS011;7921;43.586;1.408;2023-12-22T11:07:34;1.80;;;0.87;;
15643;SDS011;7921;43.586;1.408;2023-12-22T11:10:04;1.37;;;0.97;;
15643;SDS011;7921;43.586;1.408;2023-12-22T11:12:31;0.97;;;0.70;;
15643;SDS011;7921;43.586;1.408;2023-12-22T11:14:59;0.60;;;0.50;;
15643;SDS011;7921;43.586;1.408;2023-12-22T11:17:25;0.90;;;0.63;;
15643;SDS011;7921;43.586;1.408;2023-12-22T11:19:54;0.60;;;0.60;;
15643;SDS011;7921;43.586;1.408;2023-12-22T11:22:21;1.03;;;0.93;;
15643;SDS011;7921;43.586;1.408;2023-12-22T11:24:47;0.80;;;0.80;;
15643;SDS011;7921;43.586;1.408;2023-12-22T11:27:19;0.80;;;0.70;;
15643;SDS011;7921;43.586;1.408;2023-12-22T11:29:46;0.83;;;0.70;;
15643;SDS011;7921;43.586;1.408;2023-12-22T11:32:14;0.97;;;0.70;;
15643;SDS011;7921;43.586;1.408;2023-12-22T11:34:41;1.67;;;0.90;;
15643;SDS011;7921;43.586;1.408;2023-12-22T11:37:07;0.57;;;0.57;;
15643;SDS011;7921;43.586;1.408;2023-12-22T11:39:33;0.93;;;0.60;;
15643;SDS011;7921;43.586;1.408;2023-12-22T11:41:58;0.90;;;0.90;;
15643;SDS011;7921;43.586;1.408;2023-12-22T11:44:25;0.67;;;0.63;;
15643;SDS011;7921;43.586;1.408;2023-12-22T11:47:02;2.63;;;0.60;;
15643;SDS011;7921;43.586;1.408;2023-12-22T11:49:32;0.70;;;0.60;;
15643;SDS011;7921;43.586;1.408;2023-12-22T11:51:59;0.73;;;0.50;;
15643;SDS011;7921;43.586;1.408;2023-12-22T11:54:43;0.97;;;0.67;;
15643;SDS011;7921;43.586;1.408;2023-12-22T11:57:28;2.53;;;0.70;;
15643;SDS011;7921;43.586;1.408;2023-12-22T12:00:06;1.17;;;0.83;;
15643;SDS011;7921;43.586;1.408;2023-12-22T12:02:36;0.80;;;0.70;;
15643;SDS011;7921;43.586;1.408;2023-12-22T12:05:03;0.80;;;0.80;;
15643;SDS011;7921;43.586;1.408;2023-12-22T12:08:02;0.67;;;0.60;;
15643;SDS011;7921;43.586;1.408;2023-12-22T12:13:09;0.70;;;0.70;;
15643;SDS011;7921;43.586;1.408;2023-12-22T12:15:35;13.83;;;9.20;;
15643;SDS011;7921;43.586;1.408;2023-12-22T12:18:03;5.33;;;4.33;;
15643;SDS011;7921;43.586;1.408;2023-12-22T12:20:31;1.40;;;1.30;;
15643;SDS011;7921;43.586;1.408;2023-12-22T12:22:57;2.60;;;1.27;;
15643;SDS011;7921;43.586;1.408;2023-12-22T12:25:22;1.20;;;1.00;;
15643;SDS011;7921;43.586;1.408;2023-12-22T12:28:03;1.00;;;0.90;;
15643;SDS011;7921;43.586;1.408;2023-12-22T12:30:30;0.90;;;0.90;;
15643;SDS011;7921;43.586;1.408;2023-12-22T12:32:58;0.80;;;0.80;;
15643;SDS011;7921;43.586;1.408;2023-12-22T12:35:27;1.00;;;0.90;;
15643;SDS011;7921;43.586;1.408;2023-12-22T12:37:54;1.53;;;0.80;;
15643;SDS011;7921;43.586;1.408;2023-12-22T12:40:20;1.23;;;0.93;;
15643;SDS011;7921;43.586;1.408;2023-12-22T12:42:49;0.90;;;0.90;;
15643;SDS011;7921;43.586;1.408;2023-12-22T12:45:15;1.27;;;0.83;;
15643;SDS011;7921;43.586;1.408;2023-12-22T12:47:40;1.37;;;0.80;;
15643;SDS011;7921;43.586;1.408;2023-12-22T12:50:05;0.87;;;0.70;;
15643;SDS011;7921;43.586;1.408;2023-12-22T12:52:31;0.70;;;0.70;;
15643;SDS011;7921;43.586;1.408;2023-12-22T12:54:57;2.83;;;0.77;;
15643;SDS011;7921;43.586;1.408;2023-12-22T12:57:23;0.53;;;0.53;;
15643;SDS011;7921;43.586;1.408;2023-12-22T12:59:49;0.73;;;0.70;;
15643;SDS011;7921;43.586;1.408;2023-12-22T13:02:16;0.73;;;0.70;;
15643;SDS011;7921;43.586;1.408;2023-12-22T13:04:42;0.67;;;0.67;;
15643;SDS011;7921;43.586;1.408;2023-12-22T13:07:08;0.90;;;0.60;;
15643;SDS011;7921;43.586;1.408;2023-12-22T13:09:35;1.13;;;0.90;;
15643;SDS011;7921;43.586;1.408;2023-12-22T13:12:00;0.83;;;0.70;;
15643;SDS011;7921;43.586;1.408;2023-12-22T13:14:26;1.43;;;0.80;;
15643;SDS011;7921;43.586;1.408;2023-12-22T13:16:52;1.40;;;1.00;;
15643;SDS011;7921;43.586;1.408;2023-12-22T13:19:25;1.57;;;1.10;;
15643;SDS011;7921;43.586;1.408;2023-12-22T13:21:52;1.87;;;1.10;;
15643;SDS011;7921;43.586;1.408;2023-12-22T13:24:18;1.20;;;1.00;;
15643;SDS011;7921;43.586;1.408;2023-12-22T13:26:44;1.23;;;0.70;;
15643;SDS011;7921;43.586;1.408;2023-12-22T13:29:10;1.07;;;0.70;;
15643;SDS011;7921;43.586;1.408;2023-12-22T13:31:37;0.70;;;0.70;;
15643;SDS011;7921;43.586;1.408;2023-12-22T13:34:03;2.03;;;0.80;;
15643;SDS011;7921;43.586;1.408;2023-12-22T13:36:36;0.90;;;0.80;;
15643;SDS011;7921;43.586;1.408;2023-12-22T13:39:02;1.03;;;0.50;;
15643;SDS011;7921;43.586;1.408;2023-12-22T13:41:31;0.60;;;0.60;;
15643;SDS011;7921;43.586;1.408;2023-12-22T13:44:10;1.10;;;0.97;;
15643;SDS011;7921;43.586;1.408;2023-12-22T13:46:35;1.87;;;0.70;;
15643;SDS011;7921;43.586;1.408;2023-12-22T13:49:02;1.13;;;0.90;;
15643;SDS011;7921;43.586;1.408;2023-12-22T13:51:38;0.87;;;0.87;;
15643;SDS011;7921;43.586;1.408;2023-12-22T13:54:09;0.90;;;0.77;;
15643;SDS011;7921;43.586;1.408;2023-12-22T13:56:35;0.60;;;0.60;;
15643;SDS011;7921;43.586;1.408;2023-12-22T13:59:01;0.73;;;0.60;;
15643;SDS011;7921;43.586;1.408;2023-12-22T14:01:27;1.03;;;0.60;;
15643;SDS011;7921;43.586;1.408;2023-12-22T14:03:53;1.40;;;0.90;;
15643;SDS011;7921;43.586;1.408;2023-12-22T14:06:18;0.87;;;0.77;;
15643;SDS011;7921;43.586;1.408;2023-12-22T14:08:44;0.87;;;0.80;;
15643;SDS011;7921;43.586;1.408;2023-12-22T14:11:10;1.33;;;0.80;;
15643;SDS011;7921;43.586;1.408;2023-12-22T14:13:35;1.03;;;0.90;;
15643;SDS011;7921;43.586;1.408;2023-12-22T14:16:05;2.70;;;1.37;;
15643;SDS011;7921;43.586;1.408;2023-12-22T14:18:33;1.10;;;1.00;;
15643;SDS011;7921;43.586;1.408;2023-12-22T14:20:59;1.10;;;0.80;;
15643;SDS011;7921;43.586;1.408;2023-12-22T14:23:24;0.83;;;0.83;;
15643;SDS011;7921;43.586;1.408;2023-12-22T14:25:50;1.07;;;0.70;;
15643;SDS011;7921;43.586;1.408;2023-12-22T14:28:15;0.67;;;0.60;;
15643;SDS011;7921;43.586;1.408;2023-12-22T14:30:40;1.07;;;0.70;;
15643;SDS011;7921;43.586;1.408;2023-12-22T14:33:06;0.60;;;0.60;;
15643;SDS011;7921;43.586;1.408;2023-12-22T14:35:31;0.50;;;0.50;;
15643;SDS011;7921;43.586;1.408;2023-12-22T14:37:56;1.20;;;0.83;;
15643;SDS011;7921;43.586;1.408;2023-12-22T14:40:22;1.20;;;0.57;;
15643;SDS011;7921;43.586;1.408;2023-12-22T14:42:47;0.80;;;0.80;;
15643;SDS011;7921;43.586;1.408;2023-12-22T14:45:13;1.23;;;1.00;;
15643;SDS011;7921;43.586;1.408;2023-12-22T14:47:38;1.37;;;0.60;;
15643;SDS011;7921;43.586;1.408;2023-12-22T14:50:03;0.70;;;0.70;;
15643;SDS011;7921;43.586;1.408;2023-12-22T14:52:30;2.37;;;0.80;;
15643;SDS011;7921;43.586;1.408;2023-12-22T14:54:57;1.40;;;1.07;;
15643;SDS011;7921;43.586;1.408;2023-12-22T14:57:23;1.07;;;0.90;;
15643;SDS011;7921;43.586;1.408;2023-12-22T14:59:48;2.53;;;1.00;;